Terminal Aerodrome Forecast
Issued by NWS

Home | Current Version | Previous Version | Text Only | Print | Product List | Glossary On
Versions: 1 2 3 4 5 6 7 8 9 10 11 12 13 14 15 16 17 18 19 20 21 22
000
FTUS45 KCYS 251720
TAFLAR
TAF
KLAR 251720Z 2518/2618 23014G25KT P6SM BKN150
     FM260100 19010KT P6SM BKN090
     FM260600 31009KT 4SM -SNRA BR OVC025
     FM261500 34010KT P6SM OVC050=

USA.gov is the U.S. government's official web portal to all federal, state and local government web resources and services.